createdAt,value
2022-09-17T00:01:24.254Z,99171.58
2022-09-17T00:04:00.645Z,99163.91
2022-09-17T00:06:35.565Z,99155.41
2022-09-17T00:09:09.101Z,99149.42
2022-09-17T00:11:44.192Z,99158.45
2022-09-17T00:14:18.696Z,99152.11
2022-09-17T00:16:51.628Z,99146.66
2022-09-17T00:19:25.408Z,99133.68
2022-09-17T00:21:58.393Z,99119.69
2022-09-17T00:24:31.822Z,99122.91
2022-09-17T00:27:04.979Z,99121.02
2022-09-17T00:29:39.252Z,99133.60
2022-09-17T00:32:12.126Z,99138.05
2022-09-17T00:34:46.774Z,99140.48
2022-09-17T00:37:21.181Z,99139.66
2022-09-17T00:39:54.080Z,99141.72
2022-09-17T00:42:27.168Z,99137.13
2022-09-17T00:45:00.807Z,99141.92
2022-09-17T00:47:55.609Z,99154.87
2022-09-17T00:50:45.022Z,99158.67
2022-09-17T00:53:19.773Z,99164.47
2022-09-17T00:55:57.351Z,99155.97
2022-09-17T00:58:30.716Z,99153.78
2022-09-17T01:01:03.606Z,99148.16
2022-09-17T01:03:36.470Z,99146.41
2022-09-17T01:06:17.617Z,99144.18
2022-09-17T01:09:13.011Z,99158.99
2022-09-17T01:12:34.199Z,99171.76
2022-09-17T01:15:23.713Z,99180.11
2022-09-17T01:18:06.213Z,99172.47
2022-09-17T01:20:59.299Z,99162.61
2022-09-17T01:24:13.116Z,99162.42
2022-09-17T01:27:25.526Z,99163.79
2022-09-17T01:30:17.321Z,99177.41
2022-09-17T01:33:13.619Z,99174.39
2022-09-17T01:36:24.361Z,99177.98
2022-09-17T01:39:23.116Z,99174.74
2022-09-17T01:42:16.967Z,99169.51
2022-09-17T01:45:30.009Z,99172.23
2022-09-17T01:48:06.783Z,99177.14
2022-09-17T01:50:47.354Z,99179.37
2022-09-17T01:53:21.722Z,99176.64
2022-09-17T01:55:55.533Z,99187.36
2022-09-17T01:58:31.805Z,99180.70
2022-09-17T02:01:08.034Z,99182.21
2022-09-17T02:03:57.403Z,99182.72
2022-09-17T02:06:39.354Z,99184.23
2022-09-17T02:09:25.896Z,99185.23
2022-09-17T02:12:20.227Z,99177.06
2022-09-17T02:14:56.136Z,99181.30
2022-09-17T02:17:45.157Z,99185.56
2022-09-17T02:20:22.795Z,99174.02
2022-09-17T02:22:59.174Z,99176.38
2022-09-17T02:25:38.413Z,99176.20
2022-09-17T02:28:28.179Z,99186.92
2022-09-17T02:31:01.399Z,99183.52
2022-09-17T02:33:34.464Z,99183.02
2022-09-17T02:36:08.323Z,99186.06
2022-09-17T02:38:46.021Z,99186.03
2022-09-17T02:41:24.950Z,99183.81
2022-09-17T02:44:18.609Z,99178.50
2022-09-17T02:47:14.441Z,99185.83
2022-09-17T02:50:16.391Z,99167.75
2022-09-17T02:53:09.286Z,99177.29
2022-09-17T02:56:10.417Z,99167.39
2022-09-17T02:59:05.908Z,99166.38
2022-09-17T03:01:52.301Z,99163.30
2022-09-17T03:04:37.158Z,99159.89
2022-09-17T03:07:10.571Z,99163.95
2022-09-17T03:09:43.731Z,99164.27
2022-09-17T03:12:16.596Z,99165.91
2022-09-17T03:14:50.547Z,99169.97
2022-09-17T03:17:23.350Z,99162.79
2022-09-17T03:19:56.135Z,99174.38
2022-09-17T03:22:29.089Z,99171.29
2022-09-17T03:25:02.537Z,99174.34
2022-09-17T03:27:35.557Z,99171.61
2022-09-17T03:30:09.467Z,99171.97
2022-09-17T03:32:42.244Z,99176.24
2022-09-17T03:35:15.744Z,99167.38
2022-09-17T03:37:48.605Z,99173.16
2022-09-17T03:40:21.926Z,99170.92
2022-09-17T03:42:55.400Z,99173.97
2022-09-17T03:45:28.256Z,99174.33
2022-09-17T03:48:01.098Z,99183.88
2022-09-17T03:50:34.263Z,99189.65
2022-09-17T03:53:07.079Z,99194.06
2022-09-17T03:55:42.895Z,99203.94
2022-09-17T03:58:15.635Z,99203.79
2022-09-17T04:00:51.161Z,99192.05
2022-09-17T04:03:28.140Z,99181.12
2022-09-17T04:06:01.137Z,99183.52
2022-09-17T04:08:34.170Z,99189.66
2022-09-17T04:11:08.116Z,99195.83
2022-09-17T04:13:40.871Z,99200.75
2022-09-17T04:16:13.720Z,99200.75
2022-09-17T04:18:47.538Z,99203.30
2022-09-17T04:21:20.998Z,99205.34
2022-09-17T04:23:53.733Z,99209.11
2022-09-17T04:26:26.564Z,99209.61
2022-09-17T04:28:59.650Z,99212.02
2022-09-17T04:31:32.746Z,99211.52
2022-09-17T04:34:05.819Z,99215.96
2022-09-17T04:36:39.054Z,99219.73
2022-09-17T04:39:13.158Z,99222.95
2022-09-17T04:41:47.063Z,99216.14
2022-09-17T04:44:20.110Z,99217.33
2022-09-17T04:46:52.874Z,99212.23
2022-09-17T04:49:27.750Z,99215.06
2022-09-17T04:52:01.478Z,99207.73
2022-09-17T04:54:34.440Z,99205.51
2022-09-17T04:57:09.120Z,99205.61
2022-09-17T04:59:41.965Z,99199.75
2022-09-17T05:02:14.963Z,99199.34
2022-09-17T05:04:48.625Z,99200.30
2022-09-17T05:07:22.538Z,99200.30
2022-09-17T05:09:55.468Z,99209.30
2022-09-17T05:12:33.713Z,99214.36
2022-09-17T05:15:05.028Z,99213.80
2022-09-17T05:17:39.016Z,99220.62
2022-09-17T05:20:12.794Z,99221.22
2022-09-17T05:22:50.068Z,99223.39
2022-09-17T05:25:25.311Z,99229.48
2022-09-17T05:27:58.021Z,99227.05
2022-09-17T05:30:31.353Z,99223.47
2022-09-17T05:33:07.050Z,99221.84
2022-09-17T05:35:40.640Z,99222.21
2022-09-17T05:38:13.345Z,99214.02
2022-09-17T05:40:46.944Z,99222.89
2022-09-17T05:43:21.821Z,99212.96
2022-09-17T05:45:54.862Z,99204.05
2022-09-17T05:48:29.102Z,99197.20
2022-09-17T05:51:01.983Z,99186.91
2022-09-17T05:53:35.289Z,99199.41
2022-09-17T05:56:10.257Z,99202.58
2022-09-17T05:58:43.411Z,99204.08
2022-09-17T06:01:16.879Z,99215.67
2022-09-17T06:03:50.632Z,99217.91
2022-09-17T06:06:23.369Z,99215.11
2022-09-17T06:08:56.380Z,99215.76
2022-09-17T06:11:29.484Z,99212.84
2022-09-17T06:14:02.585Z,99215.73
2022-09-17T06:16:36.735Z,99220.83
2022-09-17T06:19:10.158Z,99224.04
2022-09-17T06:21:43.916Z,99228.27
2022-09-17T06:24:17.720Z,99224.66
2022-09-17T06:26:51.067Z,99212.68
2022-09-17T06:29:25.128Z,99208.94
2022-09-17T06:31:59.332Z,99213.34
2022-09-17T06:34:32.214Z,99212.17
2022-09-17T06:37:05.770Z,99214.72
2022-09-17T06:39:40.258Z,99217.45
2022-09-17T06:42:13.077Z,99216.75
2022-09-17T06:44:46.015Z,99223.18
2022-09-17T06:47:18.743Z,99224.16
2022-09-17T06:49:52.298Z,99224.65
2022-09-17T06:52:25.105Z,99229.42
2022-09-17T06:54:57.859Z,99228.18
2022-09-17T06:57:30.599Z,99229.36
2022-09-17T07:00:04.760Z,99232.73
2022-09-17T07:02:37.932Z,99235.95
2022-09-17T07:05:11.658Z,99227.37
2022-09-17T07:07:45.880Z,99229.41
2022-09-17T07:10:18.959Z,99233.09
2022-09-17T07:12:52.525Z,99226.86
2022-09-17T07:15:26.137Z,99227.84
2022-09-17T07:17:59.162Z,99225.78
2022-09-17T07:20:32.198Z,99232.88
2022-09-17T07:23:05.106Z,99237.93
2022-09-17T07:25:39.648Z,99232.05
2022-09-17T07:28:13.463Z,99230.77
2022-09-17T07:30:47.574Z,99234.61
2022-09-17T07:33:24.755Z,99239.00
2022-09-17T07:35:59.391Z,99240.61
2022-09-17T07:38:35.155Z,99241.59
2022-09-17T07:41:14.394Z,99241.21
2022-09-17T07:43:49.835Z,99247.66
2022-09-17T07:46:23.258Z,99239.07
2022-09-17T07:48:56.162Z,99239.39
2022-09-17T07:51:30.323Z,99240.05
2022-09-17T07:54:03.729Z,99245.17
2022-09-17T07:56:37.689Z,99240.33
2022-09-17T07:59:13.116Z,99234.81
2022-09-17T08:01:46.832Z,99232.83
2022-09-17T08:04:19.977Z,99232.13
2022-09-17T08:06:54.925Z,99226.27
2022-09-17T08:09:28.727Z,99224.11
2022-09-17T08:12:01.902Z,99228.80
2022-09-17T08:14:35.720Z,99230.95
2022-09-17T08:17:11.621Z,99232.25
2022-09-17T08:19:44.964Z,99229.63
2022-09-17T08:22:19.117Z,99233.73
2022-09-17T08:24:52.177Z,99226.89
2022-09-17T08:27:25.163Z,99228.06
2022-09-17T08:29:59.497Z,99219.45
2022-09-17T08:32:33.214Z,99218.70
2022-09-17T08:35:14.509Z,99216.75
2022-09-17T08:37:49.851Z,99225.11
2022-09-17T08:40:28.810Z,99230.64
2022-09-17T08:43:03.910Z,99221.88
2022-09-17T08:45:36.465Z,99227.09
2022-09-17T08:48:13.321Z,99232.76
2022-09-17T08:50:46.222Z,99227.94
2022-09-17T08:54:02.994Z,99221.92
2022-09-17T08:56:37.650Z,99226.38
2022-09-17T08:59:18.474Z,99222.38
2022-09-17T09:02:12.012Z,99220.42
2022-09-17T09:05:00.420Z,99220.66
2022-09-17T09:07:50.513Z,99227.00
2022-09-17T09:10:30.271Z,99228.64
2022-09-17T09:13:03.894Z,99243.05
2022-09-17T09:16:00.866Z,99245.47
2022-09-17T09:18:38.101Z,99239.80
2022-09-17T09:21:52.004Z,99227.70
2022-09-17T09:24:28.851Z,99219.23
2022-09-17T09:27:29.068Z,99235.71
2022-09-17T09:30:09.482Z,99234.72
2022-09-17T09:33:01.972Z,99227.39
2022-09-17T09:35:37.430Z,99226.13
2022-09-17T09:38:40.200Z,99234.95
2022-09-17T09:41:43.585Z,99245.91
2022-09-17T09:44:18.083Z,99243.80
2022-09-17T09:47:08.780Z,99235.12
2022-09-17T09:50:17.340Z,99246.19
2022-09-17T09:53:20.688Z,99244.11
2022-09-17T09:56:14.050Z,99240.23
2022-09-17T09:58:47.873Z,99246.83
2022-09-17T10:01:22.524Z,99259.39
2022-09-17T10:03:57.117Z,99258.69
2022-09-17T10:06:31.554Z,99258.69
2022-09-17T10:09:11.057Z,99252.26
2022-09-17T10:11:44.457Z,99249.52
2022-09-17T10:14:27.069Z,99243.63
2022-09-17T10:17:21.916Z,99251.15
2022-09-17T10:20:08.700Z,99243.58
2022-09-17T10:22:47.774Z,99247.18
2022-09-17T10:25:33.867Z,99236.67
2022-09-17T10:28:12.590Z,99239.53
2022-09-17T10:30:53.112Z,99240.09
2022-09-17T10:33:31.266Z,99233.66
2022-09-17T10:36:12.327Z,99245.09
2022-09-17T10:38:47.433Z,99244.58
2022-09-17T10:41:25.148Z,99238.95
2022-09-17T10:43:57.963Z,99239.15
2022-09-17T10:46:34.207Z,99238.32
2022-09-17T10:49:23.198Z,99242.75
2022-09-17T10:52:09.585Z,99248.23
2022-09-17T10:55:23.958Z,99245.48
2022-09-17T10:58:17.451Z,99250.26
2022-09-17T11:01:22.775Z,99246.97
2022-09-17T11:04:15.615Z,99247.46
2022-09-17T11:07:19.681Z,99246.67
2022-09-17T11:10:09.997Z,99230.53
2022-09-17T11:13:29.505Z,99221.31
2022-09-17T11:16:09.921Z,99215.56
2022-09-17T11:19:20.805Z,99218.11
2022-09-17T11:22:18.684Z,99212.31
2022-09-17T11:25:11.288Z,99217.48
2022-09-17T11:27:54.455Z,99225.13
2022-09-17T11:30:29.929Z,99223.19
2022-09-17T11:33:25.582Z,99228.09
2022-09-17T11:36:01.914Z,99228.16
2022-09-17T11:38:50.622Z,99220.03
2022-09-17T11:41:33.543Z,99211.16
2022-09-17T11:44:44.303Z,99207.36
2022-09-17T11:47:36.090Z,99205.02
2022-09-17T11:50:22.769Z,99190.77
2022-09-17T11:53:39.152Z,99174.39
2022-09-17T11:56:28.402Z,99178.50
2022-09-17T11:59:20.397Z,99180.92
2022-09-17T12:02:04.898Z,99192.27
2022-09-17T12:04:44.108Z,99188.36
2022-09-17T12:07:27.326Z,99173.50
2022-09-17T12:10:32.161Z,99165.67
2022-09-17T12:13:23.057Z,99172.91
2022-09-17T12:16:19.992Z,99188.64
2022-09-17T12:19:06.175Z,99192.43
2022-09-17T12:21:46.871Z,99189.34
2022-09-17T12:24:46.872Z,99174.71
2022-09-17T12:27:52.700Z,99168.77
2022-09-17T12:30:35.332Z,99168.70
2022-09-17T12:33:19.311Z,99172.05
2022-09-17T12:36:11.226Z,99174.59
2022-09-17T12:39:03.408Z,99171.24
2022-09-17T12:42:14.945Z,99176.47
2022-09-17T12:45:18.511Z,99169.08
2022-09-17T12:48:22.800Z,99164.39
2022-09-17T12:51:12.576Z,99163.28
2022-09-17T12:53:49.071Z,99166.27
2022-09-17T12:56:50.917Z,99174.24
2022-09-17T12:59:24.307Z,99175.50
2022-09-17T13:02:07.843Z,99165.56
2022-09-17T13:05:09.594Z,99176.52
2022-09-17T13:08:40.383Z,99173.27
2022-09-17T13:11:34.685Z,99160.44
2022-09-17T13:14:31.501Z,99156.45
2022-09-17T13:17:14.793Z,99156.77
2022-09-17T13:20:24.928Z,99152.03
2022-09-17T13:22:58.466Z,99163.03
2022-09-17T13:25:31.687Z,99171.86
2022-09-17T13:28:10.604Z,99168.53
2022-09-17T13:31:00.138Z,99169.60
2022-09-17T13:33:58.547Z,99166.75
2022-09-17T13:37:01.517Z,99158.73
2022-09-17T13:39:47.414Z,99151.96
2022-09-17T13:42:28.904Z,99146.49
2022-09-17T13:45:17.582Z,99149.55
2022-09-17T13:47:59.446Z,99149.55
2022-09-17T13:50:38.134Z,99147.47
2022-09-17T13:53:20.975Z,99147.08
2022-09-17T13:55:55.421Z,99149.16
2022-09-17T13:58:32.493Z,99145.75
2022-09-17T14:01:13.265Z,99145.13
2022-09-17T14:03:53.335Z,99144.14
2022-09-17T14:06:30.937Z,99137.70
2022-09-17T14:09:07.477Z,99125.77
2022-09-17T14:11:40.679Z,99123.81
2022-09-17T14:14:30.340Z,99119.47
2022-09-17T14:17:03.633Z,99118.81
2022-09-17T14:19:51.548Z,99112.17
2022-09-17T14:22:28.464Z,99113.06
2022-09-17T14:25:01.437Z,99108.84
2022-09-17T14:27:55.201Z,99111.45
2022-09-17T14:30:34.946Z,99104.30
2022-09-17T14:33:18.541Z,99101.22
2022-09-17T14:36:04.812Z,99105.00
2022-09-17T14:38:46.577Z,99111.33
2022-09-17T14:41:41.829Z,99114.89
2022-09-17T14:44:18.947Z,99113.53
2022-09-17T14:47:02.256Z,99112.16
2022-09-17T14:49:37.310Z,99115.75
2022-09-17T14:52:44.143Z,99111.84
2022-09-17T14:55:27.386Z,99109.77
2022-09-17T14:58:05.116Z,99110.09
2022-09-17T15:00:39.883Z,99110.59
2022-09-17T15:03:23.873Z,99112.82
2022-09-17T15:05:57.082Z,99109.58
2022-09-17T15:08:30.456Z,99114.50
2022-09-17T15:11:12.526Z,99116.54
2022-09-17T15:13:52.229Z,99116.85
2022-09-17T15:16:27.251Z,99119.59
2022-09-17T15:19:01.148Z,99123.69
2022-09-17T15:21:39.711Z,99125.05
2022-09-17T15:25:01.487Z,99133.77
2022-09-17T15:27:38.194Z,99129.67
2022-09-17T15:30:21.917Z,99130.59
2022-09-17T15:32:59.324Z,99124.66
2022-09-17T15:35:33.826Z,99127.97
2022-09-17T15:38:24.534Z,99136.59
2022-09-17T15:40:58.361Z,99127.53
2022-09-17T15:43:38.960Z,99128.70
2022-09-17T15:46:29.847Z,99124.29
2022-09-17T15:49:28.504Z,99113.94
2022-09-17T15:52:32.046Z,99123.03
2022-09-17T15:55:06.173Z,99120.05
2022-09-17T15:57:40.178Z,99122.97
2022-09-17T16:00:17.976Z,99118.02
2022-09-17T16:02:52.864Z,99122.43
2022-09-17T16:05:45.472Z,99124.84
2022-09-17T16:08:37.707Z,99126.91
2022-09-17T16:11:11.180Z,99114.68
2022-09-17T16:13:44.139Z,99117.92
2022-09-17T16:16:25.156Z,99113.70
2022-09-17T16:18:57.981Z,99112.20
2022-09-17T16:21:32.608Z,99103.88
2022-09-17T16:24:04.655Z,99102.55
2022-09-17T16:26:39.402Z,99098.00
2022-09-17T16:29:17.442Z,99099.09
2022-09-17T16:31:51.114Z,99097.91
2022-09-17T16:34:23.905Z,99089.91
2022-09-17T16:36:56.698Z,99092.00
2022-09-17T16:39:29.471Z,99092.06
2022-09-17T16:42:02.392Z,99086.41
2022-09-17T16:44:35.598Z,99091.62
2022-09-17T16:47:08.895Z,99080.22
2022-09-17T16:49:42.533Z,99088.79
2022-09-17T16:52:15.318Z,99091.08
2022-09-17T16:54:48.348Z,99083.27
2022-09-17T16:57:22.210Z,99086.31
2022-09-17T16:59:55.505Z,99088.72
2022-09-17T17:02:28.290Z,99093.01
2022-09-17T17:05:01.093Z,99095.39
2022-09-17T17:07:34.070Z,99083.10
2022-09-17T17:10:09.255Z,99082.59
2022-09-17T17:12:42.733Z,99084.27
2022-09-17T17:15:16.511Z,99080.84
2022-09-17T17:17:50.293Z,99077.80
2022-09-17T17:20:23.322Z,99082.91
2022-09-17T17:22:57.445Z,99085.32
2022-09-17T17:25:32.394Z,99084.27
2022-09-17T17:28:05.844Z,99084.63
2022-09-17T17:30:39.071Z,99082.59
2022-09-17T17:33:11.990Z,99069.44
2022-09-17T17:35:46.390Z,99063.53
2022-09-17T17:38:38.515Z,99067.16
2022-09-17T17:41:14.333Z,99081.00
2022-09-17T17:43:47.178Z,99080.36
2022-09-17T17:46:20.161Z,99082.73
2022-09-17T17:48:53.298Z,99086.01
2022-09-17T17:51:27.581Z,99081.72
2022-09-17T17:54:00.851Z,99071.98
2022-09-17T17:56:34.168Z,99068.89
2022-09-17T17:59:06.897Z,99059.34
2022-09-17T18:01:40.926Z,99053.88
2022-09-17T18:04:13.889Z,99057.52
2022-09-17T18:06:48.330Z,99074.95
2022-09-17T18:09:22.864Z,99076.34
2022-09-17T18:11:56.196Z,99067.84
2022-09-17T18:14:29.250Z,99064.79
2022-09-17T18:17:03.538Z,99059.64
2022-09-17T18:19:37.816Z,99054.19
2022-09-17T18:22:11.102Z,99044.81
2022-09-17T18:24:43.846Z,99045.01
2022-09-17T18:27:16.654Z,99049.80
2022-09-17T18:29:49.661Z,99057.67
2022-09-17T18:32:22.395Z,99057.35
2022-09-17T18:34:55.249Z,99066.59
2022-09-17T18:37:31.026Z,99058.40
2022-09-17T18:40:05.778Z,99066.78
2022-09-17T18:42:39.013Z,99060.45
2022-09-17T18:45:12.675Z,99058.96
2022-09-17T18:47:46.056Z,99054.01
2022-09-17T18:50:18.944Z,99054.70
2022-09-17T18:52:51.888Z,99052.89
2022-09-17T18:55:25.443Z,99053.72
2022-09-17T18:57:58.231Z,99047.94
2022-09-17T19:00:31.188Z,99043.02
2022-09-17T19:03:04.176Z,99043.52
2022-09-17T19:05:37.017Z,99045.94
2022-09-17T19:08:09.781Z,99049.67
2022-09-17T19:10:43.966Z,99052.41
2022-09-17T19:13:16.712Z,99049.36
2022-09-17T19:15:49.777Z,99051.90
2022-09-17T19:18:22.909Z,99050.53
2022-09-17T19:21:06.057Z,99045.94
2022-09-17T19:23:44.448Z,99050.22
2022-09-17T19:26:20.793Z,99039.80
2022-09-17T19:29:00.644Z,99034.16
2022-09-17T19:31:52.912Z,99018.66
2022-09-17T19:34:26.349Z,99017.97
2022-09-17T19:36:59.937Z,99012.20
2022-09-17T19:39:32.763Z,99006.92
2022-09-17T19:42:07.528Z,99008.98
2022-09-17T19:44:40.640Z,99008.48
2022-09-17T19:47:13.603Z,99016.66
2022-09-17T19:49:48.126Z,99018.34
2022-09-17T19:52:20.677Z,99004.38
2022-09-17T19:54:53.866Z,98997.88
2022-09-17T19:57:27.731Z,98986.45
2022-09-17T20:00:00.588Z,98983.00
2022-09-17T20:02:35.525Z,98986.27
2022-09-17T20:05:08.876Z,98983.54
2022-09-17T20:07:43.038Z,98981.82
2022-09-17T20:10:16.118Z,98989.19
2022-09-17T20:12:49.142Z,98992.36
2022-09-17T20:15:21.851Z,98993.73
2022-09-17T20:17:56.923Z,98988.45
2022-09-17T20:20:29.777Z,98995.09
2022-09-17T20:23:03.835Z,98994.96
2022-09-17T20:25:38.753Z,98990.01
2022-09-17T20:28:14.042Z,98994.10
2022-09-17T20:30:47.963Z,98990.73
2022-09-17T20:33:24.066Z,98994.16
2022-09-17T20:36:08.965Z,98990.07
2022-09-17T20:41:17.513Z,98995.52
2022-09-17T20:43:52.670Z,98986.48
2022-09-17T20:46:28.977Z,98974.74
2022-09-17T20:48:59.787Z,98966.42
2022-09-17T20:51:35.253Z,98968.30
2022-09-17T20:54:09.117Z,98970.70
2022-09-17T20:56:42.372Z,98964.52
2022-09-17T20:59:17.859Z,98968.23
2022-09-17T21:01:50.858Z,98963.51
2022-09-17T21:04:24.791Z,98956.33
2022-09-17T21:06:58.822Z,98957.76
2022-09-17T21:09:31.399Z,98954.17
2022-09-17T21:12:05.430Z,98945.98
2022-09-17T21:14:39.618Z,98933.90
2022-09-17T21:17:12.444Z,98930.66
2022-09-17T21:19:45.846Z,98934.44
2022-09-17T21:22:18.813Z,98918.77
2022-09-17T21:24:51.592Z,98915.17
2022-09-17T21:27:26.090Z,98913.81
2022-09-17T21:29:59.431Z,98917.91
2022-09-17T21:32:32.946Z,98911.63
2022-09-17T21:35:06.846Z,98900.23
2022-09-17T21:37:39.780Z,98896.33
2022-09-17T21:40:13.139Z,98890.88
2022-09-17T21:42:46.011Z,98889.89
2022-09-17T21:45:18.738Z,98892.30
2022-09-17T21:47:52.811Z,98895.72
2022-09-17T21:50:25.565Z,98893.53
2022-09-17T21:52:58.578Z,98892.48
2022-09-17T21:55:31.297Z,98898.27
2022-09-17T21:58:04.860Z,98889.89
2022-09-17T22:00:38.361Z,98884.22
2022-09-17T22:03:11.565Z,98879.39
2022-09-17T22:05:46.826Z,98879.70
2022-09-17T22:08:21.618Z,98876.03
2022-09-17T22:10:54.813Z,98864.13
2022-09-17T22:13:29.109Z,98868.92
2022-09-17T22:16:04.733Z,98868.92
2022-09-17T22:18:38.907Z,98867.55
2022-09-17T22:21:17.433Z,98860.07
2022-09-17T22:23:51.270Z,98866.06
2022-09-17T22:26:25.730Z,98852.62
2022-09-17T22:29:00.007Z,98850.27
2022-09-17T22:31:33.005Z,98847.35
2022-09-17T22:34:11.478Z,98832.73
2022-09-17T22:36:44.306Z,98828.52
2022-09-17T22:39:18.839Z,98827.53
2022-09-17T22:41:51.137Z,98830.95
2022-09-17T22:44:23.804Z,98825.38
2022-09-17T22:46:56.873Z,98815.16
2022-09-17T22:49:29.647Z,98806.16
2022-09-17T22:52:02.685Z,98806.16
2022-09-17T22:54:35.888Z,98798.10
2022-09-17T22:57:09.278Z,98795.50
2022-09-17T22:59:42.049Z,98792.27
2022-09-17T23:02:14.953Z,98790.36
2022-09-17T23:04:47.891Z,98783.55
2022-09-17T23:07:20.638Z,98781.67
2022-09-17T23:09:53.346Z,98776.73
2022-09-17T23:12:26.276Z,98781.55
2022-09-17T23:14:59.936Z,98783.23
2022-09-17T23:17:33.053Z,98785.10
2022-09-17T23:20:06.771Z,98784.27
2022-09-17T23:22:40.099Z,98780.88
2022-09-17T23:25:13.013Z,98770.36
2022-09-17T23:27:47.399Z,98770.90
2022-09-17T23:30:20.581Z,98761.23
2022-09-17T23:32:57.692Z,98759.86
2022-09-17T23:35:30.838Z,98750.01
2022-09-17T23:38:03.529Z,98750.32
2022-09-17T23:40:37.756Z,98741.70
2022-09-17T23:43:10.597Z,98753.97
2022-09-17T23:45:44.185Z,98745.00
2022-09-17T23:48:17.072Z,98746.08
2022-09-17T23:50:50.374Z,98737.97
2022-09-17T23:53:23.433Z,98741.39
2022-09-17T23:55:56.249Z,98739.90
2022-09-17T23:58:32.804Z,98732.95
